Latest Weather Observations for Ballera

IDQ60801

Issued at 10:02 am EST Sunday 31 July 2016 (issued every 30 minutes, with the page automatically refreshed every 10 minutes)

About weather observations | Map of weather stations | Latest weather observations for QLD | Other Formats
Station Details ID: 045009 Name: BALLERA GAS FIELD Lat: -27.40 Lon: 141.81 Height: 114.5 m
Data from the previous 72 hours. | See also: Recent months at Ballera
Date/Time
EST
Temp
°C
App
Temp
°C
Dew
Point
°C
Rel
Hum
%
Delta-T
°C
Wind Press
QNH
hPa
Press
MSL
hPa
Rain since
9am
mm
Dir  Spd
km/h
Gust
km/h
Spd
kts
Gust
kts
31/10:00am 16.7 13.4 2.7 39 6.4 NE 9 13 5 7 1020.2 1020.2 0.0
31/09:30am 15.5 12.3 3.3 44 5.6 ENE 9 13 5 7 1019.9 1019.9 0.0
31/09:00am 13.5 10.7 3.3 50 4.6 ENE 7 9 4 5 1020.0 1020.0 0.0
31/08:30am 11.2 8.0 2.8 56 3.7 ENE 9 11 5 6 1019.9 1019.9 0.0
31/08:00am 9.1 5.7 2.0 61 3.0 ENE 9 11 5 6 1019.9 1019.9 0.0
31/07:30am 7.7 4.2 1.5 65 2.5 ENE 9 11 5 6 1019.7 1019.7 0.0
31/07:00am 8.1 4.3 1.7 64 2.6 ENE 11 11 6 6 1019.2 1019.2 0.0
31/06:30am 8.2 4.4 1.6 63 2.7 ENE 11 13 6 7 1019.0 1019.0 0.0
31/06:00am 8.6 5.2 2.0 63 2.8 ENE 9 11 5 6 1018.8 1018.8 0.0
31/05:30am 8.9 5.6 2.3 63 2.8 ENE 9 11 5 6 1018.5 1018.5 0.0
31/05:00am 8.6 4.8 1.7 62 2.9 ENE 11 11 6 6 1018.3 1018.3 0.0
31/04:30am 9.1 5.8 2.4 63 2.8 ENE 9 11 5 6 1018.2 1018.2 0.0
31/04:00am 8.9 5.6 2.7 65 2.6 ENE 9 11 5 6 1018.2 1018.2 0.0
31/03:30am 8.8 5.5 2.6 65 2.6 ENE 9 11 5 6 1018.3 1018.3 0.0
31/03:00am 9.2 5.5 2.5 63 2.8 ENE 11 13 6 7 1018.4 1018.4 0.0
31/02:30am 9.3 5.6 2.6 63 2.9 E 11 11 6 6 1018.8 1018.8 0.0
31/02:00am 9.7 6.5 2.8 62 3.0 ESE 9 11 5 6 1019.3 1019.3 0.0
31/01:30am 9.9 6.6 2.7 61 3.1 SE 9 9 5 5 1019.8 1019.8 0.0
31/01:00am 10.8 7.6 3.1 59 3.4 ESE 9 9 5 5 1019.9 1019.9 0.0
31/12:30am 10.3 6.3 2.9 60 3.2 ESE 13 13 7 7 1020.1 1020.1 0.0
31/12:00am 10.3 6.2 2.4 58 3.4 SE 13 13 7 7 1020.3 1020.3 0.0
 
Date/Time
EST
Temp
°C
App
Temp
°C
Dew
Point
°C
Rel
Hum
%
Delta-T
°C
Wind Press
QNH
hPa
Press
MSL
hPa
Rain since
9am
mm
Dir  Spd
km/h
Gust
km/h
Spd
kts
Gust
kts
30/11:30pm 10.5 6.4 2.1 56 3.6 SE 13 13 7 7 1020.8 1020.7 0.0
30/11:00pm 12.0 8.7 2.7 53 4.1 ESE 9 11 5 6 1020.6 1020.6 0.0
30/10:30pm 11.9 9.1 2.9 54 4.0 ESE 7 9 4 5 1020.5 1020.5 0.0
30/10:00pm 12.0 8.3 2.5 52 4.1 ESE 11 11 6 6 1020.4 1020.4 0.0
30/09:30pm 11.8 8.1 2.5 53 4.1 SE 11 13 6 7 1020.4 1020.4 0.0
30/09:00pm 12.3 8.7 3.0 53 4.1 SE 11 13 6 7 1020.4 1020.4 0.0
30/08:30pm 12.7 9.1 3.1 52 4.3 SSE 11 13 6 7 1020.3 1020.3 0.0
30/08:00pm 13.4 9.8 2.9 49 4.7 SE 11 13 6 7 1019.9 1019.9 0.0
30/07:30pm 13.9 9.8 2.5 46 5.1 SE 13 15 7 8 1019.5 1019.5 0.0
30/07:00pm 14.6 10.9 2.5 44 5.4 SE 11 13 6 7 1019.3 1019.3 0.0
30/06:30pm 16.2 12.9 2.2 39 6.3 SE 9 9 5 5 1019.1 1019.1 0.0
30/06:00pm 17.7 14.3 1.7 34 7.2 SE 9 13 5 7 1018.9 1018.9 0.0
30/05:30pm 19.5 17.4 1.5 30 8.2 E 2 9 1 5 1018.7 1018.7 0.0
30/05:00pm 19.9 16.8 1.4 29 8.4 ESE 7 9 4 5 1018.8 1018.8 0.0
30/04:30pm 20.0 17.1 1.4 29 8.5 ESE 6 13 3 7 1018.8 1018.8 0.0
30/04:00pm 20.0 16.9 1.4 29 8.5 SE 7 9 4 5 1018.8 1018.8 0.0
30/03:30pm 20.3 17.3 1.7 29 8.6 SE 7 13 4 7 1018.9 1018.9 0.0
30/03:00pm 19.9 17.0 1.4 29 8.4 SE 6 13 3 7 1019.2 1019.2 0.0
30/02:30pm 19.8 16.8 0.8 28 8.6 SSE 6 13 3 7 1019.7 1019.7 0.0
30/02:00pm 19.7 16.7 2.1 31 8.1 E 7 11 4 6 1020.0 1020.0 0.0
30/01:30pm 19.7 16.9 2.1 31 8.1 SE 6 13 3 7 1020.5 1020.5 0.0
30/01:00pm 19.3 15.9 1.8 31 8.0 NE 9 17 5 9 1021.0 1020.9 0.0
30/12:30pm 18.5 15.2 2.4 34 7.4 ENE 9 15 5 8 1021.6 1021.5 0.0
30/12:00pm 18.1 15.3 3.2 37 6.9 ENE 7 15 4 8 1022.4 1022.4 0.0
30/11:30am 17.9 15.0 4.8 42 6.3 ENE 9 15 5 8 1022.9 1022.9 0.0
30/11:00am 16.7 12.6 4.1 43 5.9 NE 15 20 8 11 1023.1 1023.1 0.0
30/10:30am 15.6 12.3 4.6 48 5.2 ENE 11 15 6 8 1023.5 1023.5 0.0
30/10:00am 14.3 11.0 4.6 52 4.5 ENE 11 15 6 8 1023.7 1023.7 0.0
30/09:30am 12.9 9.6 4.3 56 3.9 E 11 15 6 8 1023.5 1023.5 0.0
30/09:00am 11.5 8.2 4.5 62 3.2 ESE 11 15 6 8 1023.4 1023.4 0.0
30/08:30am 10.1 7.2 4.9 70 2.4 ESE 9 11 5 6 1023.2 1023.2 0.0
30/08:00am 7.9 4.9 4.1 77 1.6 ESE 9 11 5 6 1023.3 1023.3 0.0
30/07:30am 6.5 3.1 3.8 83 1.2 ESE 11 11 6 6 1023.0 1023.0 0.0
30/07:00am 5.8 1.9 3.3 84 1.0 SE 13 13 7 7 1022.7 1022.7 0.0
30/06:30am 5.9 2.0 3.4 84 1.1 SE 13 15 7 8 1022.6 1022.6 0.0
30/06:00am 6.2 2.3 3.4 82 1.2 SE 13 15 7 8 1022.4 1022.4 0.0
30/05:30am 7.1 3.3 4.1 81 1.3 SE 13 15 7 8 1022.3 1022.2 0.0
30/05:00am 6.4 2.9 3.6 82 1.2 SE 11 13 6 7 1022.2 1022.1 0.0
30/04:30am 6.9 3.4 3.5 79 1.4 SE 11 13 6 7 1022.2 1022.1 0.0
30/04:00am 8.2 4.8 3.9 74 1.9 SE 11 13 6 7 1022.6 1022.6 0.0
30/03:30am 8.5 5.2 4.3 75 1.9 SE 11 13 6 7 1022.5 1022.5 0.0
30/03:00am 9.2 6.3 4.6 73 2.0 ESE 9 9 5 5 1022.5 1022.5 0.0
30/02:30am 9.0 6.4 4.4 73 2.0 E 7 9 4 5 1022.5 1022.5 0.0
30/02:00am 9.0 6.1 4.4 73 2.0 ESE 9 11 5 6 1022.7 1022.7 0.0
30/01:30am 8.7 5.7 3.9 72 2.1 ESE 9 11 5 6 1023.0 1023.0 0.0
30/01:00am 9.4 6.0 4.2 70 2.3 SE 11 15 6 8 1023.1 1023.1 0.0
30/12:30am 9.9 6.2 4.3 68 2.5 SE 13 19 7 10 1023.0 1023.0 0.0
30/12:00am 9.7 5.6 4.3 69 2.4 SE 15 15 8 8 1023.3 1023.3 0.0
 
Date/Time
EST
Temp
°C
App
Temp
°C
Dew
Point
°C
Rel
Hum
%
Delta-T
°C
Wind Press
QNH
hPa
Press
MSL
hPa
Rain since
9am
mm
Dir  Spd
km/h
Gust
km/h
Spd
kts
Gust
kts
29/11:30pm 10.1 6.4 4.3 67 2.6 SE 13 15 7 8 1023.6 1023.6 0.0
29/11:00pm 10.5 6.4 4.2 65 2.8 SE 15 19 8 10 1023.6 1023.6 0.0
29/10:30pm 11.0 6.9 4.2 63 3.1 SSE 15 20 8 11 1023.7 1023.7 0.0
29/10:00pm 11.4 7.7 4.4 62 3.2 S 13 15 7 8 1023.7 1023.7 0.0
29/09:30pm 12.2 8.1 4.2 58 3.6 SSE 15 17 8 9 1023.7 1023.7 0.0
29/09:00pm 12.1 8.0 4.3 59 3.5 S 15 17 8 9 1023.6 1023.6 0.0
29/08:30pm 12.2 8.5 4.2 58 3.6 SSE 13 15 7 8 1023.5 1023.5 0.0
29/08:00pm 13.0 9.3 4.4 56 3.9 SSE 13 15 7 8 1023.4 1023.4 0.0
29/07:30pm 14.0 10.0 4.9 54 4.3 SSE 15 17 8 9 1023.2 1023.2 0.0
29/07:00pm 14.3 10.3 4.9 53 4.4 SSE 15 17 8 9 1023.0 1023.0 0.0
29/06:30pm 15.5 11.8 4.6 48 5.1 SSE 13 17 7 9 1022.6 1022.6 0.0
29/06:00pm 17.2 13.8 4.2 42 6.1 SE 11 13 6 7 1022.4 1022.4 0.0
29/05:30pm 18.9 15.5 3.9 37 7.1 SSE 11 15 6 8 1022.4 1022.4 0.0
29/05:00pm 19.5 15.6 3.6 35 7.5 SSE 13 19 7 10 1022.2 1022.1 0.0
29/04:30pm 19.9 16.7 3.2 33 7.9 SSE 9 17 5 9 1022.1 1022.0 0.0
29/04:00pm 19.8 16.2 3.1 33 7.8 SE 11 19 6 10 1022.0 1021.9 0.0
29/03:30pm 19.7 16.3 3.8 35 7.6 SE 11 19 6 10 1022.2 1022.1 0.0
29/03:00pm 20.1 17.1 4.2 35 7.7 SE 9 13 5 7 1022.4 1022.4 0.0
29/02:30pm 19.7 16.6 3.8 35 7.6 ESE 9 15 5 8 1022.8 1022.8 0.0
29/02:00pm 20.1 17.3 5.0 37 7.4 E 9 17 5 9 1023.3 1023.3 0.0
29/01:30pm 18.7 15.3 4.1 38 7.0 SE 11 15 6 8 1023.7 1023.7 0.0
29/01:00pm 18.8 15.6 4.9 40 6.7 ENE 11 19 6 10 1024.2 1024.2 0.0
29/12:30pm 18.0 14.4 4.9 42 6.3 E 13 19 7 10 1024.7 1024.7 0.0
29/12:00pm 18.0 14.1 5.2 43 6.2 E 15 24 8 13 1025.3 1025.3 0.0
29/11:30am 17.2 12.9 5.2 45 5.8 ESE 17 22 9 12 1025.8 1025.8 0.0
29/11:00am 16.2 11.9 5.2 48 5.2 E 17 24 9 13 1026.2 1026.2 0.0
29/10:30am 15.0 10.4 5.5 53 4.5 E 19 22 10 12 1026.4 1026.4 0.0
29/10:00am 13.7 9.0 5.1 56 4.0 E 19 22 10 12 1026.4 1026.4 0.0
29/09:30am 12.2 7.5 5.1 62 3.3 ESE 19 22 10 12 1026.3 1026.3 0.0
29/09:00am 11.1 7.2 5.2 67 2.7 ESE 15 17 8 9 1026.3 1026.3 0.0
29/08:30am 9.3 5.3 4.9 74 2.0 SE 15 17 8 9 1026.1 1026.1 0.0
29/08:00am 7.6 3.9 4.6 81 1.3 SE 13 17 7 9 1025.8 1025.8 0.0
29/07:30am 6.2 2.0 3.9 85 1.0 SE 15 17 8 9 1025.6 1025.6 0.0
29/07:00am 5.7 1.4 3.5 86 0.9 SE 15 17 8 9 1025.4 1025.4 0.0
29/06:30am 5.7 1.8 3.5 86 0.9 SE 13 15 7 8 1025.3 1025.3 0.0
29/06:00am 6.1 1.9 3.9 86 0.9 SE 15 15 8 8 1025.1 1025.1 0.0
29/05:30am 5.9 2.0 3.6 85 1.0 SE 13 15 7 8 1024.7 1024.7 0.0
29/05:00am 6.5 2.7 4.0 84 1.1 SE 13 13 7 7 1024.7 1024.7 0.0
29/04:30am 6.8 3.0 3.9 82 1.2 SE 13 13 7 7 1024.6 1024.6 0.0
29/04:00am 7.3 3.5 4.1 80 1.4 SE 13 15 7 8 1024.7 1024.7 0.0
29/03:30am 7.6 3.9 4.4 80 1.4 SE 13 15 7 8 1024.9 1024.9 0.0
29/03:00am 7.4 3.7 4.2 80 1.4 SE 13 15 7 8 1025.1 1025.1 0.0
29/02:30am 7.6 3.5 4.2 79 1.5 SE 15 17 8 9 1025.2 1025.2 0.0
29/02:00am 7.8 4.0 4.0 77 1.6 ESE 13 15 7 8 1025.6 1025.6 0.0
29/01:30am 8.9 4.8 4.3 73 2.0 SE 15 17 8 9 1025.7 1025.7 0.0
29/01:00am 9.7 5.3 4.5 70 2.3 SE 17 20 9 11 1025.9 1025.9 0.0
29/12:30am 10.4 6.0 4.5 67 2.7 SE 17 22 9 12 1026.1 1026.1 0.0
29/12:00am 10.0 5.9 4.6 69 2.4 SE 15 19 8 10 1026.3 1026.3 0.0
 
Date/Time
EST
Temp
°C
App
Temp
°C
Dew
Point
°C
Rel
Hum
%
Delta-T
°C
Wind Press
QNH
hPa
Press
MSL
hPa
Rain since
9am
mm
Dir  Spd
km/h
Gust
km/h
Spd
kts
Gust
kts
28/11:30pm 10.3 6.3 4.7 68 2.5 SE 15 19 8 10 1026.5 1026.5 0.0
28/11:00pm 9.9 5.8 4.5 69 2.4 SE 15 17 8 9 1026.5 1026.5 0.0
28/10:30pm 10.4 6.0 4.5 67 2.7 SE 17 19 9 10 1026.6 1026.6 0.0
28/10:00pm 10.1 6.0 4.3 67 2.6 SSE 15 17 8 9 1026.5 1026.5 0.0
28/09:30pm 10.7 6.2 4.0 63 3.0 SSE 17 19 9 10 1026.5 1026.5 0.0
28/09:00pm 12.0 7.1 4.2 59 3.5 SSE 19 22 10 12 1026.6 1026.6 0.0
28/08:30pm 12.0 7.5 4.2 59 3.5 S 17 20 9 11 1026.5 1026.5 0.0
28/08:08pm 11.7 7.2 4.2 60 3.4 S 17 17 9 9 1026.4 1026.4 0.0
28/08:00pm 11.9 7.4 4.2 59 3.5 S 17 17 9 9 1026.3 1026.3 0.0
28/07:57pm 11.9 7.4 4.2 59 3.5 S 17 17 9 9 1026.3 1026.3 0.0
28/07:30pm 12.7 8.6 4.2 56 3.9 S 15 17 8 9 1026.1 1026.1 0.0
28/07:00pm 12.9 9.1 4.1 55 4.0 SSE 13 15 7 8 1025.8 1025.8 0.0
28/06:30pm 14.5 10.4 4.2 50 4.8 SSE 15 17 8 9 1025.6 1025.6 0.0
28/06:00pm 15.9 11.4 4.0 45 5.5 SSE 17 20 9 11 1025.4 1025.4 0.0
28/05:30pm 17.1 12.2 4.1 42 6.1 SSE 19 22 10 12 1025.1 1025.1 0.0
28/05:00pm 17.6 12.8 4.6 42 6.2 SE 19 26 10 14 1024.8 1024.8 0.0
28/04:30pm 18.2 13.4 4.4 40 6.6 SSE 19 26 10 14 1024.7 1024.7 0.0
28/04:00pm 18.4 13.9 4.2 39 6.7 SE 17 24 9 13 1024.9 1024.9 0.0
28/03:30pm 18.8 14.7 4.6 39 6.8 SSE 15 22 8 12 1024.9 1024.9 0.0
28/03:00pm 18.2 14.6 5.1 42 6.3 SSE 13 20 7 11 1025.3 1025.3 0.0
28/02:30pm 18.2 13.6 5.4 43 6.2 SSE 19 26 10 14 1025.7 1025.7 0.0
28/02:00pm 17.5 13.2 5.1 44 6.0 SE 17 26 9 14 1025.8 1025.8 0.0
28/01:30pm 17.5 13.6 5.4 45 5.9 SSE 15 22 8 12 1026.4 1026.4 0.0
28/01:00pm 17.8 13.6 5.7 45 5.9 ESE 17 24 9 13 1027.1 1027.1 0.0
28/12:30pm 17.3 13.3 4.9 44 6.0 SE 15 24 8 13 1027.4 1027.4 0.0
28/12:00pm 17.0 12.3 5.3 46 5.6 ESE 19 24 10 13 1027.9 1027.9 0.0
28/11:30am 16.9 12.3 5.8 48 5.4 ESE 19 26 10 14 1028.3 1028.3 0.0
28/11:00am 15.8 10.6 5.4 50 5.0 E 22 32 12 17 1028.8 1028.8 0.0
28/10:30am 14.7 9.9 5.8 55 4.3 ESE 20 26 11 14 1029.1 1029.1 0.0

Other Formats:

Comma delimited format used in spreadsheet applications
http://www.bom.gov.au/fwo/IDQ60801/IDQ60801.95487.axf

JavaScript Object Notation format (JSON) in row-major order
http://www.bom.gov.au/fwo/IDQ60801/IDQ60801.95487.json